Lancaster, Texas
Current Conditions -  °F | °C
As of 3:15 AM on Friday 31 Oct 2014 (Local Time) from KLNC Reporting Station
Clear Clear  
Wind Chill: 57°   Ceiling: Unl
Heat Index: 57°   Visibility: 10mi
Dew Point: 46°   Wind: 8mph
Humidity: 66%   Direction: 320°NW
Pressure: 30.18"   Gusts: NA
Location:  32.59°N, 96.75°W
Report Text: KLNC 310815Z AUTO 32007KT 10SM CLR 14/08 A3018 RMK AO2 T01380076
Loading
Personal Weather Stations






























Interactive Weather Map
Tropical Storm Tracking
New forecast layout! Learn more

10-Day Weather Forecast

Advertisements
Track Severe Weather on mobile